Terminal Aerodrome Forecast
Issued by NWS

Home | Current Version | Previous Version | Text Only | Print | Product List | Glossary On
Versions: 1 2 3 4 5 6 7 8 9 10 11 12 13 14 15 16 17 18 19 20 21 22 23 24 25
050
FTUS46 KMTR 221138
TAFSFO
TAF
KSFO 221138Z 2212/2318 27013KT P6SM FEW025 SCT035 BKN040
      TEMPO 2212/2214 BKN030
     FM221600 29015G22KT P6SM SCT020 SCT040
     FM222000 28020G28KT P6SM FEW025 SCT050
     FM222300 28028G34KT P6SM FEW030 SCT050
     FM230400 28020G28KT P6SM FEW040
     FM230900 31013G18KT P6SM FEW025 SCT050
     FM231200 32008KT P6SM FEW040=

USA.gov is the U.S. government's official web portal to all federal, state and local government web resources and services.